Terminal Aerodrome Forecast
Issued by NWS

Home | Current Version | Previous Version | Graphics & Text | Print | Product List | Glossary On
Versions: 1 2 3 4 5 6 7 8 9 10 11 12 13 14 15 16 17 18 19 20 21 22 23
000
FTUS43 KGRB 252100 AAA
TAFAUW
TAF AMD
KAUW 252144Z 2522/2618 06005KT P6SM BKN120
     FM260600 17004KT P6SM BKN090 OVC150
     FM261500 18009KT 1SM -SN SCT009 OVC015=

USA.gov is the U.S. government's official web portal to all federal, state and local government web resources and services.